Flight Track Log - Related Links

Times and Time Zones

All times are in EDT time to prevent confusion due to time zone crossing. See the SWA1035 flight status page for this flight to view local times or setup timezone preferences in your user account.

Time Position Orientation Groundspeed Altitude Reporting Facility
EDT Latitude Longitude Course Direction KTS MPH feet Rate Location/Type
Mon 02:17:32 PM 39.3000 -94.7333 200° South 152 175 1,700  Level Kansas City TRACON
Mon 02:18:17 PM 39.2725 -94.7464 200° South 151 174 2,700 1,794 Climbing Kansas City Center
Mon 02:19:19 PM 39.2522 -94.8292 252° West 236 272 4,900 3,000 Climbing Kansas City Center
Mon 02:20:21 PM 39.2456 -94.9136 264° West 245 282 8,900 3,145 Climbing Kansas City Center
Mon 02:21:23 PM 39.2347 -95.0283 263° West 308 354 11,400 3,000 Climbing Kansas City Center
Mon 02:22:25 PM 39.2222 -95.1636 263° West 344 396 15,100 3,484 Climbing Kansas City Center
Mon 02:23:27 PM 39.2100 -95.2933 263° West 364 419 18,600 3,000 Climbing Kansas City Center
Mon 02:24:29 PM 39.1975 -95.4256 263° West 372 428 21,300 2,516 Climbing Kansas City Center
Mon 02:25:31 PM 39.1844 -95.5589 263° West 386 444 23,800 2,419 Climbing Kansas City Center
Mon 02:26:33 PM 39.1689 -95.7183 263° West 399 459 26,300 2,081 Climbing Kansas City Center
Mon 02:27:35 PM 39.1553 -95.8594 263° West 414 476 28,100 1,887 Climbing Kansas City Center
Mon 02:28:37 PM 39.1361 -96.0278 262° West 424 488 30,200 1,887 Climbing Kansas City Center
Mon 02:29:39 PM 39.1175 -96.1700 260° West 421 484 32,000 1,597 Climbing Kansas City Center
Mon 02:30:41 PM 39.0997 -96.3094 261° West 414 476 33,500 1,790 Climbing Kansas City Center
Mon 02:31:43 PM 39.0797 -96.4703 261° West 407 468 35,700 1,210 Climbing Kansas City Center
Mon 02:32:45 PM 39.0583 -96.6036 258° West 400 460 36,000 145 Climbing Kansas City Center
Mon 02:33:47 PM 39.0408 -96.7600 262° West 396 456 36,000 242 Level Kansas City Center
Mon 02:34:49 PM 39.0222 -96.8947 260° West 398 458 36,500 968 Climbing Kansas City Center
Mon 02:35:51 PM 39.0025 -97.0486 261° West 394 453 38,000 968 Climbing Kansas City Center
Mon 02:36:53 PM 38.9856 -97.1858 261° West 403 464 38,500 823 Climbing Kansas City Center
Mon 02:37:55 PM 38.9661 -97.3303 260° West 412 474 39,700 726 Climbing Kansas City Center
Mon 02:38:57 PM 38.9292 -97.4667 251° West 410 472 40,000 145 Climbing Kansas City Center
Mon 02:39:59 PM 38.8733 -97.6269 246° West 410 472 40,000  Level Kansas City Center
Mon 02:41:00 PM 38.8283 -97.7556 246° West 413 475 40,000  Level Kansas City Center
Mon 02:42:02 PM 38.7781 -97.8933 245° Southwest 415 478 40,000  Level Kansas City Center
Mon 02:43:04 PM 38.7308 -98.0272 246° West 415 478 40,000  Level Kansas City Center
Mon 02:44:06 PM 38.6811 -98.1614 245° Southwest 419 482 40,000  Level Kansas City Center
Mon 02:45:08 PM 38.6333 -98.2958 246° West 419 482 40,000  Level Kansas City Center
Mon 02:46:10 PM 38.5747 -98.4597 245° Southwest 424 488 40,000  Level Kansas City Center
Mon 02:47:12 PM 38.5250 -98.5956 245° Southwest 424 488 40,000  Level Kansas City Center
Mon 02:48:14 PM 38.4753 -98.7322 245° Southwest 426 490 40,000  Level Kansas City Center
Mon 02:49:16 PM 38.4242 -98.8686 244° Southwest 427 491 40,000  Level Kansas City Center
Mon 02:50:18 PM 38.3742 -99.0058 245° Southwest 429 494 40,000  Level Kansas City Center
Mon 02:51:20 PM 38.3225 -99.1431 244° Southwest 430 495 40,000  Level Kansas City Center
Mon 02:52:22 PM 38.2625 -99.3061 245° Southwest 427 491 40,000  Level Kansas City Center
Mon 02:53:24 PM 38.2122 -99.4411 245° Southwest 424 488 40,000  Level Kansas City Center
Mon 02:54:26 PM 38.1603 -99.5739 244° Southwest 427 491 40,000  Level Kansas City Center
Mon 02:55:28 PM 38.1044 -99.7231 245° Southwest 420 483 40,000  Level Kansas City Center
Mon 02:56:30 PM 38.0567 -99.8508 245° Southwest 420 483 40,000  Level Kansas City Center
Mon 02:57:32 PM 37.9994 -99.9981 244° Southwest 418 481 40,000  Level Kansas City Center
Mon 02:58:33 PM 37.9508 -100.1258 244° Southwest 419 482 40,000  Level Kansas City Center
Mon 02:59:35 PM 37.8939 -100.2753 244° Southwest 422 486 40,000  Level Kansas City Center
Mon 03:00:37 PM 37.8442 -100.4014 243° Southwest 420 483 40,000  Level Kansas City Center
Mon 03:01:39 PM 37.7872 -100.5467 244° Southwest 421 484 40,000  Level Kansas City Center
Mon 03:02:41 PM 37.7361 -100.6786 244° Southwest 420 483 40,000  Level Kansas City Center
Mon 03:03:43 PM 37.6839 -100.8111 244° Southwest 421 484 40,000  Level Kansas City Center
Mon 03:04:45 PM 37.6300 -100.9442 243° Southwest 422 486 40,000  Level Kansas City Center
Mon 03:05:47 PM 37.5761 -101.0833 244° Southwest 432 497 40,000  Level Kansas City Center
Mon 03:06:48 PM 37.5203 -101.2233 243° Southwest 429 494 40,000  Level Kansas City Center
Mon 03:07:50 PM 37.4597 -101.3736 243° Southwest 430 495 40,000  Level Kansas City Center
Mon 03:08:52 PM 37.4089 -101.5000 243° Southwest 426 490 40,000  Level Kansas City Center
Mon 03:09:54 PM 37.3497 -101.6489 243° Southwest 425 489 40,000  Level Kansas City Center
Mon 03:10:56 PM 37.2986 -101.7731 243° Southwest 420 483 40,000  Level Kansas City Center
Mon 03:11:58 PM 37.2400 -101.9183 243° Southwest 419 482 40,000  Level Kansas City Center
Mon 03:12:29 PM 37.2153 -101.9811 244° Southwest 416 479 40,000  Level Albuquerque Center
Mon 03:13:31 PM 37.1661 -102.1047 244° Southwest 414 476 40,000  Level Albuquerque Center
Mon 03:14:33 PM 37.1083 -102.2467 243° Southwest 410 472 40,000  Level Albuquerque Center
Mon 03:15:35 PM 37.0567 -102.3686 242° Southwest 412 474 40,000  Level Albuquerque Center
Mon 03:16:36 PM 36.9972 -102.5117 243° Southwest 414 476 40,000  Level Albuquerque Center
Mon 03:17:38 PM 36.9453 -102.6389 243° Southwest 413 475 40,000  Level Albuquerque Center
Mon 03:18:40 PM 36.8942 -102.7633 243° Southwest 417 480 40,000  Level Albuquerque Center
Mon 03:19:42 PM 36.8325 -102.9097 242° Southwest 423 487 40,000  Level Albuquerque Center
Mon 03:20:43 PM 36.7797 -103.0336 242° Southwest 421 484 40,000  Level Albuquerque Center
Mon 03:21:45 PM 36.7186 -103.1778 242° Southwest 420 483 40,000  Level Albuquerque Center
Mon 03:22:47 PM 36.6667 -103.3011 242° Southwest 419 482 40,000  Level Albuquerque Center
Mon 03:23:49 PM 36.6067 -103.4408 242° Southwest 418 481 40,000  Level Albuquerque Center
Mon 03:24:51 PM 36.5517 -103.5700 242° Southwest 419 482 40,000  Level Albuquerque Center
Mon 03:25:52 PM 36.4969 -103.7000 242° Southwest 420 483 40,000  Level Albuquerque Center
Mon 03:26:54 PM 36.4417 -103.8272 242° Southwest 419 482 40,000 -48 Level Albuquerque Center
Mon 03:27:56 PM 36.3858 -103.9572 242° Southwest 421 484 39,900 -774 Descending Albuquerque Center
Mon 03:28:58 PM 36.3286 -104.0861 241° Southwest 424 488 38,400 -919 Descending Albuquerque Center
Mon 03:30:00 PM 36.2703 -104.2183 241° Southwest 430 495 38,000 -677 Descending Albuquerque Center
Mon 03:31:02 PM 36.2100 -104.3522 241° Southwest 439 505 37,000 -968 Descending Albuquerque Center
Mon 03:32:04 PM 36.1436 -104.5047 242° Southwest 433 498 36,000 -488 Descending Albuquerque Center
Mon 03:33:05 PM 36.0886 -104.6325 242° Southwest 423 487 36,000  Level Albuquerque Center
Mon 03:34:07 PM 36.0308 -104.7597 241° Southwest 422 486 36,000  Level Albuquerque Center
Mon 03:35:09 PM 35.9717 -104.8917 241° Southwest 432 497 36,000 -387 Level Albuquerque Center
Mon 03:36:11 PM 35.9114 -105.0256 241° Southwest 441 507 35,200 -871 Descending Albuquerque Center
Mon 03:37:13 PM 35.8553 -105.1497 241° Southwest 424 488 34,200 -581 Descending Albuquerque Center
Mon 03:38:15 PM 35.7978 -105.2775 241° Southwest 422 486 34,000 -97 Descending Albuquerque Center
Mon 03:39:17 PM 35.7322 -105.4231 241° Southwest 417 480 34,000 -387 Level Albuquerque Center
Mon 03:40:19 PM 35.6936 -105.5569 250° West 413 475 33,200 -1,561 Descending Albuquerque Center
Mon 03:41:20 PM 35.6808 -105.7014 264° West 421 484 30,800 -2,537 Descending Albuquerque Center
Mon 03:42:22 PM 35.6683 -105.8475 264° West 428 493 28,000 -2,613 Descending Albuquerque Center
Mon 03:43:24 PM 35.6525 -105.9886 262° West 421 484 25,400 -2,226 Descending Albuquerque Center
Mon 03:44:26 PM 35.6389 -106.1256 263° West 410 472 23,400 -1,790 Descending Albuquerque Center
Mon 03:45:28 PM 35.6275 -106.2522 264° West 381 438 21,700 -1,790 Descending Albuquerque Center
Mon 03:46:30 PM 35.6161 -106.3747 264° West 366 421 19,700 -2,163 Descending Albuquerque Center
Mon 03:46:54 PM 35.6061 -106.4406 259° West 354 407 18,600 -2,419 Descending Albuquerque Center
Mon 03:47:32 PM 35.6008 -106.5144 265° West 351 404 17,200 -2,500 Descending Albuquerque Center
Mon 03:47:54 PM 35.5806 -106.5517 236° Southwest 348 400 16,100 -2,226 Descending Albuquerque Center
Mon 03:48:34 PM 35.5281 -106.5908 211° Southwest 361 415 14,900 -2,164 Descending Albuquerque Center
Mon 03:48:55 PM 35.4947 -106.6106 206° Southwest 357 411 13,900 -2,557 Descending Albuquerque Center
Mon 03:49:35 PM 35.4422 -106.6444 208° Southwest 352 405 12,300 -2,600 Descending Albuquerque Center
Mon 03:49:55 PM 35.4044 -106.6678 207° Southwest 343 395 11,300 -1,742 Descending Albuquerque Center
Mon 03:50:37 PM 35.3603 -106.6967 208° Southwest 339 390 10,500 -1,377 Descending Albuquerque Center
Mon 03:50:56 PM 35.3256 -106.7169 205° Southwest 309 356 9,900 -1,258 Descending Albuquerque Center
Mon 03:51:39 PM 35.2808 -106.7278 191° South 316 364 9,200 -896 Descending Albuquerque Center
Mon 03:52:03 PM 35.2386 -106.7314 184° South 291 335 8,900 -484 Descending Albuquerque Center
Mon 03:52:41 PM 35.2019 -106.7328 182° South 296 341 8,700 -700 Descending Albuquerque Center
Mon 03:53:03 PM 35.1667 -106.7344 182° South 250 288 8,200 -774 Descending Albuquerque Center
Mon 03:53:43 PM 35.1325 -106.7369 183° South 269 310 7,900 -787 Descending Albuquerque Center
Mon 03:54:04 PM 35.0983 -106.7339 176° South 214 246 7,400 -484 Descending Albuquerque Center
Mon 03:54:45 PM 35.0733 -106.7256 165° South 234 269 7,400 -689 Level Albuquerque Center
Mon 03:55:05 PM 35.0525 -106.7042 140° Southeast 179 206 6,700 -1,258 Descending Albuquerque Center
Mon 03:55:47 PM 35.0442 -106.6667 105° East 191 220 6,100 -808 Descending Albuquerque Center
Mon 03:56:49 PM 35.0442 -106.6111 90° East 172 198 5,300 -774 Descending Albuquerque Center
Mon 03:58:00 PM 35.0402 -106.6092 90° East  Level Estimated

Login

Don't have an account? Register now (free) for customized features, flight alerts, and more!